createdAt,value
2017-10-02T00:01:14.380Z,7.00
2017-10-02T00:03:41.858Z,7.00
2017-10-02T00:06:10.154Z,7.10
2017-10-02T00:08:37.623Z,7.00
2017-10-02T00:11:05.095Z,7.30
2017-10-02T00:13:32.603Z,7.30
2017-10-02T00:16:00.087Z,7.20
2017-10-02T00:18:28.348Z,7.20
2017-10-02T00:20:56.583Z,7.30
2017-10-02T00:23:24.208Z,7.30
2017-10-02T00:25:51.719Z,7.30
2017-10-02T00:28:19.186Z,7.10
2017-10-02T00:30:46.673Z,7.30
2017-10-02T00:33:14.149Z,7.40
2017-10-02T00:35:41.659Z,7.30
2017-10-02T00:38:09.138Z,7.30
2017-10-02T00:40:37.410Z,7.40
2017-10-02T00:43:04.911Z,7.40
2017-10-02T00:45:32.400Z,7.40
2017-10-02T00:47:59.906Z,7.50
2017-10-02T00:50:28.250Z,7.40
2017-10-02T00:52:55.773Z,7.40
2017-10-02T00:55:23.252Z,7.40
2017-10-02T00:57:50.771Z,7.40
2017-10-02T01:00:18.255Z,7.40
2017-10-02T01:02:45.737Z,7.50
2017-10-02T01:05:13.235Z,7.50
2017-10-02T01:07:40.710Z,7.40
2017-10-02T01:10:08.218Z,7.50
2017-10-02T01:12:35.687Z,7.50
2017-10-02T01:15:03.971Z,7.60
2017-10-02T01:17:32.212Z,7.50
2017-10-02T01:19:59.683Z,7.40
2017-10-02T01:22:27.178Z,7.40
2017-10-02T01:24:54.680Z,7.40
2017-10-02T01:27:22.178Z,7.40
2017-10-02T01:29:50.449Z,7.60
2017-10-02T01:32:17.962Z,7.60
2017-10-02T01:34:45.447Z,7.60
2017-10-02T01:37:12.918Z,7.60
2017-10-02T01:39:41.207Z,7.40
2017-10-02T01:42:08.691Z,7.40
2017-10-02T01:44:36.219Z,7.40
2017-10-02T01:47:03.720Z,7.60
2017-10-02T01:49:31.224Z,7.60
2017-10-02T01:51:58.698Z,7.70
2017-10-02T01:54:26.934Z,7.70
2017-10-02T01:56:54.439Z,7.70
2017-10-02T01:59:22.684Z,7.70
2017-10-02T02:01:50.215Z,7.60
2017-10-02T02:04:17.706Z,7.70
2017-10-02T02:06:46.707Z,7.70
2017-10-02T02:09:14.228Z,7.70
2017-10-02T02:11:41.702Z,7.60
2017-10-02T02:14:09.234Z,7.60
2017-10-02T02:16:36.727Z,7.50
2017-10-02T02:19:04.234Z,7.50
2017-10-02T02:21:32.459Z,7.70
2017-10-02T02:23:59.961Z,7.70
2017-10-02T02:26:28.223Z,7.80
2017-10-02T02:28:55.692Z,7.70
2017-10-02T02:31:23.954Z,7.90
2017-10-02T02:33:51.426Z,7.90
2017-10-02T02:36:19.688Z,7.80
2017-10-02T02:38:47.162Z,7.80
2017-10-02T02:41:15.445Z,7.90
2017-10-02T02:43:43.673Z,7.80
2017-10-02T02:46:11.147Z,7.80
2017-10-02T02:48:40.179Z,7.70
2017-10-02T02:51:07.748Z,7.70
2017-10-02T02:53:35.207Z,7.60
2017-10-02T02:56:02.721Z,7.70
2017-10-02T02:58:30.189Z,7.70
2017-10-02T03:00:57.687Z,7.70
2017-10-02T03:03:25.177Z,7.50
2017-10-02T03:05:52.687Z,7.60
2017-10-02T03:08:20.939Z,7.70
2017-10-02T03:10:48.403Z,7.70
2017-10-02T03:13:15.924Z,7.70
2017-10-02T03:15:43.407Z,7.80
2017-10-02T03:18:10.914Z,7.70
2017-10-02T03:20:38.384Z,7.70
2017-10-02T03:23:05.872Z,7.80
2017-10-02T03:25:33.369Z,7.70
2017-10-02T03:28:01.630Z,7.80
2017-10-02T03:30:29.128Z,7.80
2017-10-02T03:32:56.619Z,7.80
2017-10-02T03:35:24.157Z,7.80
2017-10-02T03:37:51.628Z,7.60
2017-10-02T03:40:19.143Z,7.50
2017-10-02T03:42:47.386Z,7.60
2017-10-02T03:45:14.894Z,7.60
2017-10-02T03:47:42.411Z,7.70
2017-10-02T03:50:09.928Z,7.70
2017-10-02T03:52:37.398Z,7.70
2017-10-02T03:55:04.898Z,7.70
2017-10-02T03:57:32.410Z,7.80
2017-10-02T03:59:59.891Z,7.70
2017-10-02T04:02:27.399Z,7.70
2017-10-02T04:04:54.880Z,7.70
2017-10-02T04:07:22.382Z,7.70
2017-10-02T04:09:49.860Z,7.60
2017-10-02T04:12:18.142Z,7.60
2017-10-02T04:14:46.399Z,7.50
2017-10-02T04:17:13.901Z,7.50
2017-10-02T04:19:41.375Z,7.40
2017-10-02T04:22:08.892Z,7.60
2017-10-02T04:24:37.162Z,7.60
2017-10-02T04:27:04.630Z,7.60
2017-10-02T04:29:32.905Z,7.70
2017-10-02T04:32:01.124Z,7.70
2017-10-02T04:34:28.642Z,7.70
2017-10-02T04:36:56.919Z,7.50
2017-10-02T04:39:25.203Z,7.50
2017-10-02T04:41:53.453Z,7.50
2017-10-02T04:44:20.938Z,7.40
2017-10-02T04:46:49.195Z,7.40
2017-10-02T04:49:17.443Z,7.50
2017-10-02T04:51:44.943Z,7.50
2017-10-02T04:54:13.270Z,7.60
2017-10-02T04:56:40.783Z,7.60
2017-10-02T04:59:09.018Z,7.40
2017-10-02T05:01:36.511Z,7.40
2017-10-02T05:04:04.772Z,7.60
2017-10-02T05:06:33.021Z,7.60
2017-10-02T05:09:00.507Z,7.60
2017-10-02T05:11:27.985Z,7.60
2017-10-02T05:13:56.272Z,7.50
2017-10-02T05:16:24.518Z,7.70
2017-10-02T05:18:53.248Z,7.60
2017-10-02T05:21:20.726Z,7.70
2017-10-02T05:23:48.239Z,7.60
2017-10-02T05:26:16.522Z,7.60
2017-10-02T05:28:44.784Z,7.60
2017-10-02T05:31:12.307Z,7.60
2017-10-02T05:33:39.787Z,7.60
2017-10-02T05:36:07.315Z,7.70
2017-10-02T05:38:34.808Z,7.70
2017-10-02T05:41:02.290Z,7.70
2017-10-02T05:43:30.554Z,7.80
2017-10-02T05:45:58.019Z,7.80
2017-10-02T05:48:27.286Z,7.90
2017-10-02T05:50:54.771Z,7.90
2017-10-02T05:53:22.300Z,9.00
2017-10-02T05:55:49.799Z,9.30
2017-10-02T05:58:18.022Z,9.50
2017-10-02T06:00:45.528Z,9.50
2017-10-02T06:03:13.018Z,9.70
2017-10-02T06:05:40.541Z,9.80
2017-10-02T06:08:08.014Z,9.60
2017-10-02T06:10:36.599Z,9.60
2017-10-02T06:13:04.825Z,9.60
2017-10-02T06:15:32.322Z,9.60
2017-10-02T06:17:59.841Z,9.90
2017-10-02T06:20:27.299Z,10.00
2017-10-02T06:22:54.810Z,9.50
2017-10-02T06:25:23.049Z,8.60
2017-10-02T06:27:50.562Z,8.50
2017-10-02T06:30:18.802Z,8.30
2017-10-02T06:32:46.291Z,8.30
2017-10-02T06:35:14.559Z,8.30
2017-10-02T06:37:42.836Z,8.30
2017-10-02T06:40:11.212Z,8.30
2017-10-02T06:42:39.458Z,8.20
2017-10-02T06:45:06.969Z,8.20
2017-10-02T06:47:34.469Z,8.30
2017-10-02T06:50:01.968Z,8.30
2017-10-02T06:52:30.232Z,8.30
2017-10-02T06:54:57.740Z,8.40
2017-10-02T06:57:25.235Z,8.40
2017-10-02T06:59:54.638Z,8.50
2017-10-02T07:02:22.199Z,8.40
2017-10-02T07:04:49.693Z,8.50
2017-10-02T07:07:17.964Z,8.50
2017-10-02T07:09:46.210Z,8.70
2017-10-02T07:12:13.729Z,8.60
2017-10-02T07:14:41.231Z,8.80
2017-10-02T07:17:08.770Z,8.80
2017-10-02T07:19:36.243Z,8.80
2017-10-02T07:22:03.762Z,8.80
2017-10-02T07:24:31.291Z,8.80
2017-10-02T07:26:59.572Z,8.80
2017-10-02T07:29:27.820Z,8.90
2017-10-02T07:31:55.349Z,8.90
2017-10-02T07:34:22.840Z,9.00
2017-10-02T07:36:50.332Z,9.10
2017-10-02T07:39:18.593Z,9.20
2017-10-02T07:41:46.141Z,9.20
2017-10-02T07:44:13.643Z,9.20
2017-10-02T07:46:41.135Z,9.40
2017-10-02T07:49:08.631Z,9.50
2017-10-02T07:51:36.910Z,9.80
2017-10-02T07:54:04.407Z,9.80
2017-10-02T07:56:31.930Z,10.00
2017-10-02T07:58:59.426Z,9.90
2017-10-02T08:01:26.937Z,9.80
2017-10-02T08:03:54.439Z,9.80
2017-10-02T08:06:21.914Z,9.80
2017-10-02T08:08:49.420Z,10.00
2017-10-02T08:11:16.909Z,10.00
2017-10-02T08:13:44.410Z,10.00
2017-10-02T08:16:11.888Z,10.10
2017-10-02T08:18:39.405Z,10.20
2017-10-02T08:21:06.920Z,10.20
2017-10-02T08:23:35.166Z,10.50
2017-10-02T08:26:02.679Z,10.50
2017-10-02T08:28:30.155Z,10.60
2017-10-02T08:30:57.663Z,10.60
2017-10-02T08:33:25.174Z,10.60
2017-10-02T08:35:52.702Z,10.60
2017-10-02T08:38:20.982Z,10.70
2017-10-02T08:40:49.265Z,10.70
2017-10-02T08:43:16.738Z,10.70
2017-10-02T08:45:44.215Z,10.80
2017-10-02T08:48:11.724Z,10.80
2017-10-02T08:50:39.991Z,11.00
2017-10-02T08:53:07.512Z,11.00
2017-10-02T08:55:34.987Z,11.00
2017-10-02T08:58:02.485Z,11.10
2017-10-02T09:00:30.775Z,11.20
2017-10-02T09:02:58.259Z,11.20
2017-10-02T09:05:25.769Z,11.40
2017-10-02T09:07:54.023Z,11.60
2017-10-02T09:10:21.563Z,11.60
2017-10-02T09:12:49.075Z,11.70
2017-10-02T09:15:17.342Z,11.90
2017-10-02T09:17:45.595Z,11.90
2017-10-02T09:20:13.103Z,11.90
2017-10-02T09:22:40.610Z,12.00
2017-10-02T09:25:08.088Z,12.10
2017-10-02T09:27:36.348Z,12.20
2017-10-02T09:30:03.906Z,12.20
2017-10-02T09:32:31.412Z,12.30
2017-10-02T09:34:58.885Z,12.40
2017-10-02T09:37:26.408Z,12.40
2017-10-02T09:39:54.678Z,12.60
2017-10-02T09:42:22.187Z,12.60
2017-10-02T09:44:49.699Z,12.70
2017-10-02T09:47:17.961Z,12.90
2017-10-02T09:49:45.476Z,12.80
2017-10-02T09:52:12.969Z,13.00
2017-10-02T09:54:41.227Z,13.00
2017-10-02T09:57:08.716Z,13.00
2017-10-02T09:59:36.232Z,13.00
2017-10-02T10:02:03.722Z,13.10
2017-10-02T10:04:31.213Z,13.10
2017-10-02T10:06:59.522Z,13.20
2017-10-02T10:09:27.023Z,13.10
2017-10-02T10:11:54.524Z,13.20
2017-10-02T10:14:22.000Z,13.20
2017-10-02T10:16:49.500Z,13.30
2017-10-02T10:19:17.017Z,13.30
2017-10-02T10:21:44.551Z,13.40
2017-10-02T10:24:12.815Z,13.50
2017-10-02T10:26:41.091Z,13.60
2017-10-02T10:29:09.371Z,13.60
2017-10-02T10:31:37.649Z,13.70
2017-10-02T10:34:05.909Z,13.70
2017-10-02T10:36:33.425Z,13.70
2017-10-02T10:39:00.907Z,13.70
2017-10-02T10:41:28.428Z,13.70
2017-10-02T10:43:57.289Z,13.60
2017-10-02T10:46:25.793Z,13.60
2017-10-02T10:48:53.295Z,13.60
2017-10-02T10:51:20.802Z,13.70
2017-10-02T10:53:49.058Z,13.80
2017-10-02T10:56:16.569Z,13.70
2017-10-02T10:58:44.075Z,13.80
2017-10-02T11:01:11.550Z,13.80
2017-10-02T11:03:39.799Z,13.80
2017-10-02T11:06:07.291Z,13.80
2017-10-02T11:08:35.537Z,13.90
2017-10-02T11:11:03.071Z,13.80
2017-10-02T11:13:30.560Z,13.90
2017-10-02T11:15:58.084Z,13.90
2017-10-02T11:18:25.616Z,14.00
2017-10-02T11:20:53.918Z,14.10
2017-10-02T11:23:21.413Z,14.10
2017-10-02T11:25:48.904Z,14.20
2017-10-02T11:28:16.411Z,14.40
2017-10-02T11:30:43.889Z,14.40
2017-10-02T11:33:11.388Z,14.50
2017-10-02T11:35:38.876Z,14.50
2017-10-02T11:38:06.367Z,14.50
2017-10-02T11:40:33.832Z,14.60
2017-10-02T11:43:02.103Z,14.70
2017-10-02T11:45:29.582Z,14.70
2017-10-02T11:47:57.863Z,14.80
2017-10-02T11:50:26.129Z,14.90
2017-10-02T11:52:54.416Z,15.10
2017-10-02T11:55:22.657Z,15.10
2017-10-02T11:57:50.161Z,15.10
2017-10-02T12:00:18.403Z,15.10
2017-10-02T12:02:45.945Z,15.10
2017-10-02T12:05:13.408Z,15.10
2017-10-02T12:07:40.959Z,15.20
2017-10-02T12:10:09.144Z,15.20
2017-10-02T12:12:36.651Z,15.20
2017-10-02T12:15:04.160Z,15.20
2017-10-02T12:17:31.660Z,15.20
2017-10-02T12:19:59.922Z,15.20
2017-10-02T12:22:28.203Z,15.20
2017-10-02T12:24:57.897Z,15.20
2017-10-02T12:27:25.440Z,15.10
2017-10-02T12:29:52.902Z,15.10
2017-10-02T12:32:20.376Z,15.20
2017-10-02T12:34:47.876Z,15.20
2017-10-02T12:37:15.375Z,15.10
2017-10-02T12:39:42.862Z,15.10
2017-10-02T12:42:11.140Z,15.10
2017-10-02T12:44:38.631Z,15.10
2017-10-02T12:47:06.122Z,15.10
2017-10-02T12:49:33.636Z,15.10
2017-10-02T12:52:01.117Z,15.00
2017-10-02T12:54:28.597Z,15.10
2017-10-02T12:56:56.091Z,15.10
2017-10-02T12:59:25.656Z,15.10
2017-10-02T13:01:54.031Z,15.10
2017-10-02T13:04:21.535Z,15.20
2017-10-02T13:06:49.041Z,15.20
2017-10-02T13:09:16.527Z,15.20
2017-10-02T13:11:44.056Z,15.30
2017-10-02T13:14:11.752Z,15.30
2017-10-02T13:16:39.494Z,15.30
2017-10-02T13:19:07.872Z,15.20
2017-10-02T13:21:35.422Z,15.30
2017-10-02T13:24:02.912Z,15.30
2017-10-02T13:26:30.424Z,15.30
2017-10-02T13:28:57.904Z,15.40
2017-10-02T13:31:25.402Z,15.40
2017-10-02T13:33:52.939Z,15.40
2017-10-02T13:36:21.106Z,15.40
2017-10-02T13:38:48.619Z,15.40
2017-10-02T13:41:16.851Z,15.40
2017-10-02T13:43:44.352Z,15.40
2017-10-02T13:46:12.795Z,15.40
2017-10-02T13:48:40.316Z,15.40
2017-10-02T13:51:07.827Z,15.30
2017-10-02T13:53:35.837Z,15.30
2017-10-02T13:56:03.340Z,15.40
2017-10-02T13:58:30.812Z,15.40
2017-10-02T14:00:58.610Z,15.40
2017-10-02T14:03:26.848Z,15.50
2017-10-02T14:05:54.320Z,15.50
2017-10-02T14:08:21.820Z,15.50
2017-10-02T14:10:49.371Z,15.50
2017-10-02T14:13:17.638Z,15.50
2017-10-02T14:15:45.912Z,15.40
2017-10-02T14:18:14.149Z,15.40
2017-10-02T14:20:41.647Z,15.40
2017-10-02T14:23:10.120Z,15.40
2017-10-02T14:25:39.075Z,15.40
2017-10-02T14:28:09.277Z,15.40
2017-10-02T14:30:36.813Z,15.40
2017-10-02T14:33:05.048Z,15.40
2017-10-02T14:35:32.896Z,15.40
2017-10-02T14:38:00.398Z,15.40
2017-10-02T14:40:28.648Z,15.40
2017-10-02T14:42:56.148Z,15.40
2017-10-02T14:45:24.432Z,15.40
2017-10-02T14:47:52.706Z,15.40
2017-10-02T14:50:21.033Z,15.40
2017-10-02T14:52:48.507Z,15.40
2017-10-02T14:55:16.008Z,15.40
2017-10-02T14:57:43.491Z,15.40
2017-10-02T15:00:11.102Z,15.50
2017-10-02T15:02:39.359Z,15.40
2017-10-02T15:05:08.267Z,15.40
2017-10-02T15:07:35.839Z,15.40
2017-10-02T15:10:04.079Z,15.40
2017-10-02T15:12:31.607Z,15.30
2017-10-02T15:14:59.146Z,15.30
2017-10-02T15:17:26.631Z,15.30
2017-10-02T15:19:54.118Z,15.40
2017-10-02T15:22:21.712Z,15.40
2017-10-02T15:24:50.260Z,15.40
2017-10-02T15:27:17.768Z,15.40
2017-10-02T15:29:45.367Z,15.40
2017-10-02T15:32:12.881Z,15.30
2017-10-02T15:34:41.115Z,15.20
2017-10-02T15:37:08.628Z,15.20
2017-10-02T15:39:36.137Z,15.20
2017-10-02T15:42:03.640Z,15.10
2017-10-02T15:44:31.923Z,15.10
2017-10-02T15:46:59.416Z,15.10
2017-10-02T15:49:26.907Z,15.10
2017-10-02T15:51:54.387Z,15.10
2017-10-02T15:54:22.658Z,14.90
2017-10-02T15:56:50.931Z,14.90
2017-10-02T15:59:19.176Z,14.90
2017-10-02T16:01:47.437Z,14.80
2017-10-02T16:04:14.934Z,14.80
2017-10-02T16:06:42.439Z,14.80
2017-10-02T16:09:09.932Z,15.00
2017-10-02T16:11:38.206Z,15.10
2017-10-02T16:14:05.701Z,15.00
2017-10-02T16:16:33.968Z,15.10
2017-10-02T16:19:02.208Z,15.00
2017-10-02T16:21:29.691Z,15.00
2017-10-02T16:23:57.176Z,14.90
2017-10-02T16:26:25.398Z,14.90
2017-10-02T16:28:52.929Z,14.90
2017-10-02T16:31:27.383Z,15.00
2017-10-02T16:43:01.812Z,14.70
2017-10-02T16:45:30.080Z,14.60
2017-10-02T16:47:58.351Z,14.50
2017-10-02T16:50:25.823Z,14.50
2017-10-02T16:52:54.089Z,14.50
2017-10-02T16:55:22.391Z,14.40
2017-10-02T16:57:50.628Z,14.50
2017-10-02T17:00:18.123Z,14.50
2017-10-02T17:02:45.631Z,14.40
2017-10-02T17:05:13.127Z,14.40
2017-10-02T17:07:41.368Z,14.40
2017-10-02T17:10:09.627Z,14.40
2017-10-02T17:12:37.127Z,14.40
2017-10-02T17:15:04.648Z,14.40
2017-10-02T17:17:32.131Z,14.40
2017-10-02T17:19:59.717Z,14.40
2017-10-02T17:22:27.999Z,14.40
2017-10-02T17:24:56.291Z,14.30
2017-10-02T17:27:23.800Z,14.30
2017-10-02T17:29:51.308Z,14.30
2017-10-02T17:32:19.541Z,14.30
2017-10-02T17:34:47.048Z,14.30
2017-10-02T17:37:14.521Z,14.30
2017-10-02T17:39:42.007Z,14.30
2017-10-02T17:42:10.367Z,14.20
2017-10-02T17:44:37.870Z,14.20
2017-10-02T17:47:05.331Z,14.20
2017-10-02T17:49:33.599Z,14.20
2017-10-02T17:52:02.148Z,14.20
2017-10-02T17:54:30.750Z,14.20
2017-10-02T17:56:58.252Z,14.20
2017-10-02T17:59:26.509Z,14.20
2017-10-02T18:01:53.999Z,14.20
2017-10-02T18:04:21.493Z,14.20
2017-10-02T18:06:49.012Z,14.20
2017-10-02T18:09:17.264Z,14.10
2017-10-02T18:11:44.750Z,14.10
2017-10-02T18:14:13.172Z,14.10
2017-10-02T18:16:40.636Z,14.10
2017-10-02T18:19:08.131Z,14.10
2017-10-02T18:21:36.364Z,14.10
2017-10-02T18:24:03.911Z,14.00
2017-10-02T18:26:31.381Z,14.00
2017-10-02T18:28:58.871Z,14.00
2017-10-02T18:31:27.153Z,14.00
2017-10-02T18:33:55.416Z,14.10
2017-10-02T18:36:23.640Z,14.10
2017-10-02T18:38:51.122Z,14.10
2017-10-02T18:41:18.595Z,14.10
2017-10-02T18:43:46.091Z,14.10
2017-10-02T18:46:14.421Z,14.10
2017-10-02T18:48:41.903Z,14.10
2017-10-02T18:51:09.421Z,14.00
2017-10-02T18:53:36.900Z,14.00
2017-10-02T18:56:04.394Z,14.00
2017-10-02T18:58:32.668Z,14.00
2017-10-02T19:01:02.904Z,14.00
2017-10-02T19:03:31.513Z,14.10
2017-10-02T19:05:58.985Z,14.00
2017-10-02T19:08:26.474Z,14.00
2017-10-02T19:10:53.939Z,14.00
2017-10-02T19:13:21.447Z,14.00
2017-10-02T19:15:48.916Z,14.00
2017-10-02T19:18:16.370Z,14.00
2017-10-02T19:20:43.892Z,14.00
2017-10-02T19:23:12.152Z,14.00
2017-10-02T19:25:39.647Z,14.00
2017-10-02T19:28:07.117Z,14.00
2017-10-02T19:30:34.612Z,14.00
2017-10-02T19:33:02.132Z,14.00
2017-10-02T19:35:29.644Z,14.00
2017-10-02T19:37:57.152Z,14.00
2017-10-02T19:40:24.644Z,14.00
2017-10-02T19:42:52.200Z,14.00
2017-10-02T19:45:19.681Z,14.10
2017-10-02T19:47:47.761Z,14.00
2017-10-02T19:50:15.990Z,14.00
2017-10-02T19:52:43.531Z,13.90
2017-10-02T19:55:10.998Z,14.00
2017-10-02T19:57:38.523Z,14.00
2017-10-02T20:00:06.769Z,13.90
2017-10-02T20:02:34.239Z,13.90
2017-10-02T20:05:01.751Z,13.90
2017-10-02T20:07:29.261Z,13.90
2017-10-02T20:09:56.765Z,13.90
2017-10-02T20:12:24.237Z,13.90
2017-10-02T20:14:51.761Z,13.90
2017-10-02T20:17:19.995Z,13.90
2017-10-02T20:19:47.459Z,13.90
2017-10-02T20:22:14.983Z,13.80
2017-10-02T20:24:42.490Z,13.80
2017-10-02T20:27:10.000Z,13.80
2017-10-02T20:29:37.459Z,13.80
2017-10-02T20:32:04.992Z,13.80
2017-10-02T20:34:33.250Z,13.80
2017-10-02T20:37:00.749Z,13.80
2017-10-02T20:39:28.243Z,13.80
2017-10-02T20:41:56.311Z,13.80
2017-10-02T20:44:23.818Z,13.80
2017-10-02T20:46:52.064Z,13.80
2017-10-02T20:49:19.592Z,13.80
2017-10-02T20:51:47.070Z,13.80
2017-10-02T20:54:14.563Z,13.80
2017-10-02T20:56:42.830Z,13.70
2017-10-02T20:59:12.506Z,13.70
2017-10-02T21:01:40.071Z,13.70
2017-10-02T21:04:07.552Z,13.70
2017-10-02T21:06:35.052Z,13.70
2017-10-02T21:09:02.537Z,13.70
2017-10-02T21:11:30.051Z,13.70
2017-10-02T21:13:58.279Z,13.70
2017-10-02T21:16:25.792Z,13.70
2017-10-02T21:18:54.041Z,13.70
2017-10-02T21:21:21.505Z,13.70
2017-10-02T21:23:49.014Z,13.70
2017-10-02T21:26:18.376Z,13.70
2017-10-02T21:28:46.671Z,13.70
2017-10-02T21:31:14.159Z,13.70
2017-10-02T21:33:41.641Z,13.70
2017-10-02T21:36:09.107Z,13.70
2017-10-02T21:38:36.618Z,13.70
2017-10-02T21:41:04.080Z,13.70
2017-10-02T21:43:31.575Z,13.70
2017-10-02T21:45:59.100Z,13.70
2017-10-02T21:48:26.826Z,13.70
2017-10-02T21:50:55.099Z,13.80
2017-10-02T21:53:23.394Z,13.80
2017-10-02T21:55:52.719Z,13.80
2017-10-02T21:58:20.196Z,13.80
2017-10-02T22:00:47.722Z,13.80
2017-10-02T22:03:15.180Z,13.80
2017-10-02T22:05:42.688Z,13.90
2017-10-02T22:08:10.162Z,13.90
2017-10-02T22:10:37.672Z,13.90
2017-10-02T22:13:05.678Z,14.10
2017-10-02T22:15:33.155Z,14.10
2017-10-02T22:18:01.385Z,14.30
2017-10-02T22:20:28.912Z,14.30
2017-10-02T22:22:56.420Z,14.40
2017-10-02T22:25:23.885Z,14.40
2017-10-02T22:27:52.934Z,14.40
2017-10-02T22:30:20.417Z,14.40
2017-10-02T22:32:47.883Z,14.40
2017-10-02T22:35:15.359Z,14.40
2017-10-02T22:37:42.932Z,14.30
2017-10-02T22:40:10.566Z,14.30
2017-10-02T22:42:38.758Z,14.30
2017-10-02T22:45:06.249Z,14.20
2017-10-02T22:47:34.498Z,14.10
2017-10-02T22:50:02.000Z,14.10
2017-10-02T22:52:29.480Z,14.00
2017-10-02T22:54:56.988Z,14.00
2017-10-02T22:57:25.235Z,13.90
2017-10-02T22:59:52.730Z,13.80
2017-10-02T23:02:21.277Z,13.80
2017-10-02T23:04:48.743Z,13.80
2017-10-02T23:07:16.252Z,13.70
2017-10-02T23:09:43.830Z,13.70
2017-10-02T23:12:14.539Z,13.70
2017-10-02T23:14:42.040Z,13.70
2017-10-02T23:17:09.502Z,13.60
2017-10-02T23:19:36.992Z,13.60
2017-10-02T23:22:05.228Z,13.60
2017-10-02T23:24:32.733Z,13.60
2017-10-02T23:27:01.050Z,13.60
2017-10-02T23:29:28.567Z,13.60
2017-10-02T23:31:56.833Z,13.50
2017-10-02T23:34:25.070Z,13.50
2017-10-02T23:36:52.588Z,13.50
2017-10-02T23:39:20.829Z,13.50
2017-10-02T23:41:48.330Z,13.40
2017-10-02T23:44:16.584Z,13.40
2017-10-02T23:46:44.078Z,13.40
2017-10-02T23:49:11.555Z,13.50
2017-10-02T23:51:39.050Z,13.50
2017-10-02T23:54:06.534Z,13.50
2017-10-02T23:56:34.763Z,13.40
2017-10-02T23:59:02.354Z,13.40
